sensor_id;sensor_type;location;lat;lon;timestamp;temperature;humidity
1179;DHT22;578;48.408;10.004;2022-10-16T00:00:46;13.50;99.90
1179;DHT22;578;48.408;10.004;2022-10-16T00:03:13;13.50;99.90
1179;DHT22;578;48.408;10.004;2022-10-16T00:05:41;13.40;99.90
1179;DHT22;578;48.408;10.004;2022-10-16T00:08:09;13.30;99.90
1179;DHT22;578;48.408;10.004;2022-10-16T00:10:36;13.40;99.90
1179;DHT22;578;48.408;10.004;2022-10-16T00:13:03;13.40;99.90
1179;DHT22;578;48.408;10.004;2022-10-16T00:15:32;13.30;99.90
1179;DHT22;578;48.408;10.004;2022-10-16T00:18:01;13.30;99.90
1179;DHT22;578;48.408;10.004;2022-10-16T00:20:28;13.30;99.90
1179;DHT22;578;48.408;10.004;2022-10-16T00:22:56;13.30;99.90
1179;DHT22;578;48.408;10.004;2022-10-16T00:25:23;13.30;99.90
1179;DHT22;578;48.408;10.004;2022-10-16T00:27:49;13.30;99.90
1179;DHT22;578;48.408;10.004;2022-10-16T00:30:16;13.20;99.90
1179;DHT22;578;48.408;10.004;2022-10-16T00:32:45;13.30;99.90
1179;DHT22;578;48.408;10.004;2022-10-16T00:35:11;13.40;99.90
1179;DHT22;578;48.408;10.004;2022-10-16T00:37:38;13.30;99.90
1179;DHT22;578;48.408;10.004;2022-10-16T00:40:06;13.30;99.90
1179;DHT22;578;48.408;10.004;2022-10-16T00:42:32;13.30;99.90
1179;DHT22;578;48.408;10.004;2022-10-16T00:44:59;13.30;99.90
1179;DHT22;578;48.408;10.004;2022-10-16T00:47:28;13.20;99.90
1179;DHT22;578;48.408;10.004;2022-10-16T00:50:00;13.10;99.90
1179;DHT22;578;48.408;10.004;2022-10-16T00:52:28;13.10;99.90
1179;DHT22;578;48.408;10.004;2022-10-16T00:54:56;13.00;99.90
1179;DHT22;578;48.408;10.004;2022-10-16T00:57:23;12.90;99.90
1179;DHT22;578;48.408;10.004;2022-10-16T00:59:51;12.80;99.90
1179;DHT22;578;48.408;10.004;2022-10-16T01:02:18;12.70;99.90
1179;DHT22;578;48.408;10.004;2022-10-16T01:04:48;12.70;99.90
1179;DHT22;578;48.408;10.004;2022-10-16T01:07:26;12.70;99.90
1179;DHT22;578;48.408;10.004;2022-10-16T01:10:04;12.70;99.90
1179;DHT22;578;48.408;10.004;2022-10-16T01:12:40;12.60;99.90
1179;DHT22;578;48.408;10.004;2022-10-16T01:15:12;12.50;99.90
1179;DHT22;578;48.408;10.004;2022-10-16T01:17:45;12.40;99.90
1179;DHT22;578;48.408;10.004;2022-10-16T01:20:20;12.40;99.90
1179;DHT22;578;48.408;10.004;2022-10-16T01:23:05;12.40;99.90
1179;DHT22;578;48.408;10.004;2022-10-16T01:25:46;12.40;99.90
1179;DHT22;578;48.408;10.004;2022-10-16T01:28:17;12.40;99.90
1179;DHT22;578;48.408;10.004;2022-10-16T01:30:46;12.50;99.90
1179;DHT22;578;48.408;10.004;2022-10-16T01:33:16;12.50;99.90
1179;DHT22;578;48.408;10.004;2022-10-16T01:35:48;12.50;99.90
1179;DHT22;578;48.408;10.004;2022-10-16T01:38:18;12.40;99.90
1179;DHT22;578;48.408;10.004;2022-10-16T01:40:50;12.40;99.90
1179;DHT22;578;48.408;10.004;2022-10-16T01:43:22;12.40;99.90
1179;DHT22;578;48.408;10.004;2022-10-16T01:45:51;12.40;99.90
1179;DHT22;578;48.408;10.004;2022-10-16T01:48:19;12.40;99.90
1179;DHT22;578;48.408;10.004;2022-10-16T01:50:52;12.40;99.90
1179;DHT22;578;48.408;10.004;2022-10-16T01:53:20;12.40;99.90
1179;DHT22;578;48.408;10.004;2022-10-16T01:55:48;12.40;99.90
1179;DHT22;578;48.408;10.004;2022-10-16T01:58:16;12.40;99.90
1179;DHT22;578;48.408;10.004;2022-10-16T02:00:45;12.40;99.90
1179;DHT22;578;48.408;10.004;2022-10-16T02:03:16;12.40;99.90
1179;DHT22;578;48.408;10.004;2022-10-16T02:05:46;12.40;99.90
1179;DHT22;578;48.408;10.004;2022-10-16T02:08:13;12.40;99.90
1179;DHT22;578;48.408;10.004;2022-10-16T02:10:41;12.40;99.90
1179;DHT22;578;48.408;10.004;2022-10-16T02:13:10;12.40;99.90
1179;DHT22;578;48.408;10.004;2022-10-16T02:15:37;12.40;99.90
1179;DHT22;578;48.408;10.004;2022-10-16T02:18:06;12.40;99.90
1179;DHT22;578;48.408;10.004;2022-10-16T02:20:38;12.40;99.90
1179;DHT22;578;48.408;10.004;2022-10-16T02:23:09;12.40;99.90
1179;DHT22;578;48.408;10.004;2022-10-16T02:25:40;12.40;99.90
1179;DHT22;578;48.408;10.004;2022-10-16T02:28:12;12.40;99.90
1179;DHT22;578;48.408;10.004;2022-10-16T02:30:42;12.40;99.90
1179;DHT22;578;48.408;10.004;2022-10-16T02:33:12;12.40;99.90
1179;DHT22;578;48.408;10.004;2022-10-16T02:35:40;12.40;99.90
1179;DHT22;578;48.408;10.004;2022-10-16T02:38:08;12.40;99.90
1179;DHT22;578;48.408;10.004;2022-10-16T02:40:36;12.40;99.90
1179;DHT22;578;48.408;10.004;2022-10-16T02:43:04;12.40;99.90
1179;DHT22;578;48.408;10.004;2022-10-16T02:45:31;12.40;99.90
1179;DHT22;578;48.408;10.004;2022-10-16T02:47:58;12.40;99.90
1179;DHT22;578;48.408;10.004;2022-10-16T02:50:26;12.40;99.90
1179;DHT22;578;48.408;10.004;2022-10-16T02:52:53;12.40;99.90
1179;DHT22;578;48.408;10.004;2022-10-16T02:55:20;12.40;99.90
1179;DHT22;578;48.408;10.004;2022-10-16T02:57:47;12.50;99.90
1179;DHT22;578;48.408;10.004;2022-10-16T03:00:15;12.60;99.90
1179;DHT22;578;48.408;10.004;2022-10-16T03:02:43;12.50;99.90
1179;DHT22;578;48.408;10.004;2022-10-16T03:05:10;12.50;99.90
1179;DHT22;578;48.408;10.004;2022-10-16T03:07:39;12.60;99.90
1179;DHT22;578;48.408;10.004;2022-10-16T03:10:06;12.60;99.90
1179;DHT22;578;48.408;10.004;2022-10-16T03:12:33;12.50;99.90
1179;DHT22;578;48.408;10.004;2022-10-16T03:15:00;12.50;99.90
1179;DHT22;578;48.408;10.004;2022-10-16T03:17:27;12.60;99.90
1179;DHT22;578;48.408;10.004;2022-10-16T03:19:53;12.60;99.90
1179;DHT22;578;48.408;10.004;2022-10-16T03:22:20;12.60;99.90
1179;DHT22;578;48.408;10.004;2022-10-16T03:24:48;12.50;99.90
1179;DHT22;578;48.408;10.004;2022-10-16T03:27:15;12.50;99.90
1179;DHT22;578;48.408;10.004;2022-10-16T03:29:41;12.50;99.90
1179;DHT22;578;48.408;10.004;2022-10-16T03:32:08;12.50;99.90
1179;DHT22;578;48.408;10.004;2022-10-16T03:34:35;12.50;99.90
1179;DHT22;578;48.408;10.004;2022-10-16T03:37:02;12.50;99.90
1179;DHT22;578;48.408;10.004;2022-10-16T03:39:28;12.50;99.90
1179;DHT22;578;48.408;10.004;2022-10-16T03:41:56;12.50;99.90
1179;DHT22;578;48.408;10.004;2022-10-16T03:44:23;12.50;99.90
1179;DHT22;578;48.408;10.004;2022-10-16T03:46:50;12.40;99.90
1179;DHT22;578;48.408;10.004;2022-10-16T03:49:16;12.50;99.90
1179;DHT22;578;48.408;10.004;2022-10-16T03:51:43;12.40;99.90
1179;DHT22;578;48.408;10.004;2022-10-16T03:54:10;12.40;99.90
1179;DHT22;578;48.408;10.004;2022-10-16T03:56:38;12.50;99.90
1179;DHT22;578;48.408;10.004;2022-10-16T03:59:06;12.40;99.90
1179;DHT22;578;48.408;10.004;2022-10-16T04:01:32;12.50;99.90
1179;DHT22;578;48.408;10.004;2022-10-16T04:03:59;12.50;99.90
1179;DHT22;578;48.408;10.004;2022-10-16T04:06:26;12.40;99.90
1179;DHT22;578;48.408;10.004;2022-10-16T04:08:52;12.40;99.90
1179;DHT22;578;48.408;10.004;2022-10-16T04:11:19;12.40;99.90
1179;DHT22;578;48.408;10.004;2022-10-16T04:13:46;12.30;99.90
1179;DHT22;578;48.408;10.004;2022-10-16T04:16:14;12.20;99.90
1179;DHT22;578;48.408;10.004;2022-10-16T04:18:41;12.10;99.90
1179;DHT22;578;48.408;10.004;2022-10-16T04:21:08;12.20;99.90
1179;DHT22;578;48.408;10.004;2022-10-16T04:23:35;12.10;99.90
1179;DHT22;578;48.408;10.004;2022-10-16T04:26:01;12.00;99.90
1179;DHT22;578;48.408;10.004;2022-10-16T04:28:28;12.00;99.90
1179;DHT22;578;48.408;10.004;2022-10-16T04:30:55;12.00;99.90
1179;DHT22;578;48.408;10.004;2022-10-16T04:33:23;12.00;99.90
1179;DHT22;578;48.408;10.004;2022-10-16T04:35:56;11.90;99.90
1179;DHT22;578;48.408;10.004;2022-10-16T04:38:23;12.00;99.90
1179;DHT22;578;48.408;10.004;2022-10-16T04:40:49;11.90;99.90
1179;DHT22;578;48.408;10.004;2022-10-16T04:43:17;12.00;99.90
1179;DHT22;578;48.408;10.004;2022-10-16T04:45:43;12.00;99.90
1179;DHT22;578;48.408;10.004;2022-10-16T04:48:10;12.00;99.90
1179;DHT22;578;48.408;10.004;2022-10-16T04:50:38;12.00;99.90
1179;DHT22;578;48.408;10.004;2022-10-16T04:53:05;11.90;99.90
1179;DHT22;578;48.408;10.004;2022-10-16T04:55:32;11.90;99.90
1179;DHT22;578;48.408;10.004;2022-10-16T04:57:59;11.80;99.90
1179;DHT22;578;48.408;10.004;2022-10-16T05:00:26;11.70;99.90
1179;DHT22;578;48.408;10.004;2022-10-16T05:02:53;11.80;99.90
1179;DHT22;578;48.408;10.004;2022-10-16T05:05:20;11.70;99.90
1179;DHT22;578;48.408;10.004;2022-10-16T05:07:48;11.80;99.90
1179;DHT22;578;48.408;10.004;2022-10-16T05:10:15;11.70;99.90
1179;DHT22;578;48.408;10.004;2022-10-16T05:12:42;11.70;99.90
1179;DHT22;578;48.408;10.004;2022-10-16T05:15:09;11.70;99.90
1179;DHT22;578;48.408;10.004;2022-10-16T05:17:36;11.70;99.90
1179;DHT22;578;48.408;10.004;2022-10-16T05:20:03;11.70;99.90
1179;DHT22;578;48.408;10.004;2022-10-16T05:22:30;11.60;99.90
1179;DHT22;578;48.408;10.004;2022-10-16T05:24:58;11.70;99.90
1179;DHT22;578;48.408;10.004;2022-10-16T05:27:25;11.80;99.90
1179;DHT22;578;48.408;10.004;2022-10-16T05:29:52;11.70;99.90
1179;DHT22;578;48.408;10.004;2022-10-16T05:32:18;11.70;99.90
1179;DHT22;578;48.408;10.004;2022-10-16T05:34:45;11.70;99.90
1179;DHT22;578;48.408;10.004;2022-10-16T05:37:12;11.80;99.90
1179;DHT22;578;48.408;10.004;2022-10-16T05:39:39;11.80;99.90
1179;DHT22;578;48.408;10.004;2022-10-16T05:42:07;11.80;99.90
1179;DHT22;578;48.408;10.004;2022-10-16T05:44:34;11.80;99.90
1179;DHT22;578;48.408;10.004;2022-10-16T05:47:00;11.90;99.90
1179;DHT22;578;48.408;10.004;2022-10-16T05:49:27;11.80;99.90
1179;DHT22;578;48.408;10.004;2022-10-16T05:51:54;11.80;99.90
1179;DHT22;578;48.408;10.004;2022-10-16T05:54:21;11.90;99.90
1179;DHT22;578;48.408;10.004;2022-10-16T05:56:47;12.00;99.90
1179;DHT22;578;48.408;10.004;2022-10-16T05:59:15;12.00;99.90
1179;DHT22;578;48.408;10.004;2022-10-16T06:01:42;12.00;99.90
1179;DHT22;578;48.408;10.004;2022-10-16T06:04:09;12.00;99.90
1179;DHT22;578;48.408;10.004;2022-10-16T06:06:36;11.90;99.90
1179;DHT22;578;48.408;10.004;2022-10-16T06:09:03;12.00;99.90
1179;DHT22;578;48.408;10.004;2022-10-16T06:11:32;12.10;99.90
1179;DHT22;578;48.408;10.004;2022-10-16T06:14:00;12.20;99.90
1179;DHT22;578;48.408;10.004;2022-10-16T06:16:33;12.40;99.90
1179;DHT22;578;48.408;10.004;2022-10-16T06:19:00;12.40;99.90
1179;DHT22;578;48.408;10.004;2022-10-16T06:21:28;12.40;99.90
1179;DHT22;578;48.408;10.004;2022-10-16T06:23:56;12.50;99.90
1179;DHT22;578;48.408;10.004;2022-10-16T06:26:24;12.60;99.90
1179;DHT22;578;48.408;10.004;2022-10-16T06:28:51;12.70;99.90
1179;DHT22;578;48.408;10.004;2022-10-16T06:31:18;12.80;99.90
1179;DHT22;578;48.408;10.004;2022-10-16T06:33:50;12.80;99.90
1179;DHT22;578;48.408;10.004;2022-10-16T06:36:17;12.80;99.90
1179;DHT22;578;48.408;10.004;2022-10-16T06:38:44;12.80;99.90
1179;DHT22;578;48.408;10.004;2022-10-16T06:41:12;12.80;99.90
1179;DHT22;578;48.408;10.004;2022-10-16T06:43:39;12.90;99.90
1179;DHT22;578;48.408;10.004;2022-10-16T06:46:08;13.10;99.90
1179;DHT22;578;48.408;10.004;2022-10-16T06:48:36;13.20;99.90
1179;DHT22;578;48.408;10.004;2022-10-16T06:51:06;13.40;99.90
1179;DHT22;578;48.408;10.004;2022-10-16T06:53:36;13.50;99.90
1179;DHT22;578;48.408;10.004;2022-10-16T06:56:07;13.60;99.90
1179;DHT22;578;48.408;10.004;2022-10-16T06:58:34;13.60;99.90
1179;DHT22;578;48.408;10.004;2022-10-16T07:01:01;13.60;99.90
1179;DHT22;578;48.408;10.004;2022-10-16T07:03:27;13.60;99.90
1179;DHT22;578;48.408;10.004;2022-10-16T07:05:54;13.60;99.90
1179;DHT22;578;48.408;10.004;2022-10-16T07:08:23;13.70;99.90
1179;DHT22;578;48.408;10.004;2022-10-16T07:10:58;13.70;99.90
1179;DHT22;578;48.408;10.004;2022-10-16T07:13:25;13.80;99.90
1179;DHT22;578;48.408;10.004;2022-10-16T07:15:51;13.90;99.90
1179;DHT22;578;48.408;10.004;2022-10-16T07:18:18;14.00;99.90
1179;DHT22;578;48.408;10.004;2022-10-16T07:20:45;13.90;99.90
1179;DHT22;578;48.408;10.004;2022-10-16T07:23:12;14.10;99.90
1179;DHT22;578;48.408;10.004;2022-10-16T07:25:40;14.20;99.90
1179;DHT22;578;48.408;10.004;2022-10-16T07:28:06;14.10;99.90
1179;DHT22;578;48.408;10.004;2022-10-16T07:30:35;14.30;99.90
1179;DHT22;578;48.408;10.004;2022-10-16T07:33:02;14.30;99.90
1179;DHT22;578;48.408;10.004;2022-10-16T07:35:29;14.40;99.90
1179;DHT22;578;48.408;10.004;2022-10-16T07:37:56;14.50;99.90
1179;DHT22;578;48.408;10.004;2022-10-16T07:40:23;14.50;99.90
1179;DHT22;578;48.408;10.004;2022-10-16T07:42:53;14.40;99.90
1179;DHT22;578;48.408;10.004;2022-10-16T07:45:20;14.40;99.90
1179;DHT22;578;48.408;10.004;2022-10-16T07:47:47;14.50;99.90
1179;DHT22;578;48.408;10.004;2022-10-16T07:50:14;14.40;99.90
1179;DHT22;578;48.408;10.004;2022-10-16T07:52:40;14.50;99.90
1179;DHT22;578;48.408;10.004;2022-10-16T07:55:08;14.50;99.90
1179;DHT22;578;48.408;10.004;2022-10-16T07:57:35;14.50;99.90
1179;DHT22;578;48.408;10.004;2022-10-16T08:00:03;14.60;99.90
1179;DHT22;578;48.408;10.004;2022-10-16T08:02:31;14.70;99.90
1179;DHT22;578;48.408;10.004;2022-10-16T08:04:58;14.70;99.90
1179;DHT22;578;48.408;10.004;2022-10-16T08:07:25;14.70;99.90
1179;DHT22;578;48.408;10.004;2022-10-16T08:09:52;14.60;99.90
1179;DHT22;578;48.408;10.004;2022-10-16T08:12:18;14.70;99.90
1179;DHT22;578;48.408;10.004;2022-10-16T08:14:45;14.70;99.90
1179;DHT22;578;48.408;10.004;2022-10-16T08:17:15;14.80;99.90
1179;DHT22;578;48.408;10.004;2022-10-16T08:19:44;14.80;99.90
1179;DHT22;578;48.408;10.004;2022-10-16T08:22:11;14.90;99.90
1179;DHT22;578;48.408;10.004;2022-10-16T08:24:38;14.90;99.90
1179;DHT22;578;48.408;10.004;2022-10-16T08:27:05;15.00;99.90
1179;DHT22;578;48.408;10.004;2022-10-16T08:29:32;15.00;99.90
1179;DHT22;578;48.408;10.004;2022-10-16T08:31:59;15.10;99.90
1179;DHT22;578;48.408;10.004;2022-10-16T08:34:27;15.20;99.90
1179;DHT22;578;48.408;10.004;2022-10-16T08:36:54;15.10;99.90
1179;DHT22;578;48.408;10.004;2022-10-16T08:39:23;15.10;99.90
1179;DHT22;578;48.408;10.004;2022-10-16T08:42:12;15.20;99.90
1179;DHT22;578;48.408;10.004;2022-10-16T08:47:48;15.50;99.90
1179;DHT22;578;48.408;10.004;2022-10-16T08:50:22;15.60;99.90
1179;DHT22;578;48.408;10.004;2022-10-16T08:52:51;15.70;99.90
1179;DHT22;578;48.408;10.004;2022-10-16T08:55:30;15.80;99.90
1179;DHT22;578;48.408;10.004;2022-10-16T08:57:57;15.70;99.90
1179;DHT22;578;48.408;10.004;2022-10-16T09:00:25;15.80;99.90
1179;DHT22;578;48.408;10.004;2022-10-16T09:02:57;15.80;99.90
1179;DHT22;578;48.408;10.004;2022-10-16T09:05:46;15.90;99.90
1179;DHT22;578;48.408;10.004;2022-10-16T09:08:21;16.00;99.90
1179;DHT22;578;48.408;10.004;2022-10-16T09:10:56;16.00;99.90
1179;DHT22;578;48.408;10.004;2022-10-16T09:13:28;16.10;99.90
1179;DHT22;578;48.408;10.004;2022-10-16T09:16:01;16.10;99.90
1179;DHT22;578;48.408;10.004;2022-10-16T09:18:37;16.20;99.90
1179;DHT22;578;48.408;10.004;2022-10-16T09:21:11;16.30;99.90
1179;DHT22;578;48.408;10.004;2022-10-16T09:23:39;16.30;99.90
1179;DHT22;578;48.408;10.004;2022-10-16T09:26:10;16.30;99.90
1179;DHT22;578;48.408;10.004;2022-10-16T09:28:38;16.30;99.90
1179;DHT22;578;48.408;10.004;2022-10-16T09:31:05;16.30;99.90
1179;DHT22;578;48.408;10.004;2022-10-16T09:33:35;16.50;99.90
1179;DHT22;578;48.408;10.004;2022-10-16T09:36:03;16.50;99.90
1179;DHT22;578;48.408;10.004;2022-10-16T09:38:34;16.60;99.90
1179;DHT22;578;48.408;10.004;2022-10-16T09:41:10;16.70;99.90
1179;DHT22;578;48.408;10.004;2022-10-16T09:43:45;16.80;99.90
1179;DHT22;578;48.408;10.004;2022-10-16T09:46:22;17.00;99.90
1179;DHT22;578;48.408;10.004;2022-10-16T09:48:52;17.10;99.90
1179;DHT22;578;48.408;10.004;2022-10-16T09:51:23;17.30;99.90
1179;DHT22;578;48.408;10.004;2022-10-16T09:53:57;17.50;99.90
1179;DHT22;578;48.408;10.004;2022-10-16T09:56:25;17.50;99.90
1179;DHT22;578;48.408;10.004;2022-10-16T09:58:54;17.70;99.90
1179;DHT22;578;48.408;10.004;2022-10-16T10:01:22;17.90;99.90
1179;DHT22;578;48.408;10.004;2022-10-16T10:03:50;18.10;99.90
1179;DHT22;578;48.408;10.004;2022-10-16T10:06:27;18.10;99.90
1179;DHT22;578;48.408;10.004;2022-10-16T10:09:02;18.10;99.90
1179;DHT22;578;48.408;10.004;2022-10-16T10:11:41;18.10;99.90
1179;DHT22;578;48.408;10.004;2022-10-16T10:14:19;18.10;99.90
1179;DHT22;578;48.408;10.004;2022-10-16T10:16:47;18.10;99.90
1179;DHT22;578;48.408;10.004;2022-10-16T10:19:15;18.10;99.90
1179;DHT22;578;48.408;10.004;2022-10-16T10:21:42;18.50;99.90
1179;DHT22;578;48.408;10.004;2022-10-16T10:24:12;18.60;99.90
1179;DHT22;578;48.408;10.004;2022-10-16T10:26:55;18.70;99.90
1179;DHT22;578;48.408;10.004;2022-10-16T10:29:36;18.70;99.90
1179;DHT22;578;48.408;10.004;2022-10-16T10:32:16;18.60;99.90
1179;DHT22;578;48.408;10.004;2022-10-16T10:34:55;18.60;99.90
1179;DHT22;578;48.408;10.004;2022-10-16T10:37:42;18.60;99.90
1179;DHT22;578;48.408;10.004;2022-10-16T10:40:23;18.70;99.90
1179;DHT22;578;48.408;10.004;2022-10-16T10:42:54;18.70;99.90
1179;DHT22;578;48.408;10.004;2022-10-16T10:45:27;18.70;99.90
1179;DHT22;578;48.408;10.004;2022-10-16T10:48:03;18.80;99.90
1179;DHT22;578;48.408;10.004;2022-10-16T10:50:38;18.90;99.90
1179;DHT22;578;48.408;10.004;2022-10-16T10:53:22;18.80;99.90
1179;DHT22;578;48.408;10.004;2022-10-16T10:55:59;18.90;99.90
1179;DHT22;578;48.408;10.004;2022-10-16T10:58:40;18.90;99.90
1179;DHT22;578;48.408;10.004;2022-10-16T11:01:11;18.80;99.90
1179;DHT22;578;48.408;10.004;2022-10-16T11:03:59;18.70;99.90
1179;DHT22;578;48.408;10.004;2022-10-16T11:06:31;18.70;99.90
1179;DHT22;578;48.408;10.004;2022-10-16T11:09:02;18.70;99.90
1179;DHT22;578;48.408;10.004;2022-10-16T11:11:38;18.70;99.90
1179;DHT22;578;48.408;10.004;2022-10-16T11:14:14;18.80;99.90
1179;DHT22;578;48.408;10.004;2022-10-16T11:16:45;18.80;99.90
1179;DHT22;578;48.408;10.004;2022-10-16T11:19:25;18.90;99.90
1179;DHT22;578;48.408;10.004;2022-10-16T11:21:59;19.00;99.90
1179;DHT22;578;48.408;10.004;2022-10-16T11:24:35;18.90;99.90
1179;DHT22;578;48.408;10.004;2022-10-16T11:27:08;18.80;99.90
1179;DHT22;578;48.408;10.004;2022-10-16T11:29:45;18.80;99.90
1179;DHT22;578;48.408;10.004;2022-10-16T11:32:20;18.90;99.90
1179;DHT22;578;48.408;10.004;2022-10-16T11:34:51;19.00;99.90
1179;DHT22;578;48.408;10.004;2022-10-16T11:37:21;19.20;99.90
1179;DHT22;578;48.408;10.004;2022-10-16T11:39:50;19.40;99.90
1179;DHT22;578;48.408;10.004;2022-10-16T11:42:22;19.40;99.90
1179;DHT22;578;48.408;10.004;2022-10-16T11:44:57;19.50;99.90
1179;DHT22;578;48.408;10.004;2022-10-16T11:47:30;19.20;99.90
1179;DHT22;578;48.408;10.004;2022-10-16T11:50:00;19.40;99.90
1179;DHT22;578;48.408;10.004;2022-10-16T11:52:30;19.60;99.90
1179;DHT22;578;48.408;10.004;2022-10-16T11:55:05;19.80;99.90
1179;DHT22;578;48.408;10.004;2022-10-16T11:57:40;19.80;99.90
1179;DHT22;578;48.408;10.004;2022-10-16T12:00:10;19.90;99.90
1179;DHT22;578;48.408;10.004;2022-10-16T12:02:52;20.10;99.90
1179;DHT22;578;48.408;10.004;2022-10-16T12:05:25;19.90;99.90
1179;DHT22;578;48.408;10.004;2022-10-16T12:08:02;19.80;99.90
1179;DHT22;578;48.408;10.004;2022-10-16T12:10:31;19.80;99.90
1179;DHT22;578;48.408;10.004;2022-10-16T12:13:03;19.80;99.90
1179;DHT22;578;48.408;10.004;2022-10-16T12:15:31;19.80;99.90
1179;DHT22;578;48.408;10.004;2022-10-16T12:17:59;19.80;99.90
1179;DHT22;578;48.408;10.004;2022-10-16T12:20:28;19.90;99.90
1179;DHT22;578;48.408;10.004;2022-10-16T12:22:59;20.10;99.90
1179;DHT22;578;48.408;10.004;2022-10-16T12:25:28;20.20;99.90
1179;DHT22;578;48.408;10.004;2022-10-16T12:27:58;20.10;99.90
1179;DHT22;578;48.408;10.004;2022-10-16T12:30:29;20.20;99.90
1179;DHT22;578;48.408;10.004;2022-10-16T12:32:57;20.10;99.90
1179;DHT22;578;48.408;10.004;2022-10-16T12:35:27;20.10;99.90
1179;DHT22;578;48.408;10.004;2022-10-16T12:38:08;20.20;99.90
1179;DHT22;578;48.408;10.004;2022-10-16T12:40:42;20.20;99.90
1179;DHT22;578;48.408;10.004;2022-10-16T12:46:26;20.40;99.90
1179;DHT22;578;48.408;10.004;2022-10-16T12:49:37;20.40;99.90
1179;DHT22;578;48.408;10.004;2022-10-16T12:52:24;20.40;99.90
1179;DHT22;578;48.408;10.004;2022-10-16T12:54:58;20.20;99.90
1179;DHT22;578;48.408;10.004;2022-10-16T12:57:38;20.30;99.90
1179;DHT22;578;48.408;10.004;2022-10-16T13:00:21;20.40;99.90
1179;DHT22;578;48.408;10.004;2022-10-16T13:06:11;20.70;99.90
1179;DHT22;578;48.408;10.004;2022-10-16T13:09:12;20.80;99.90
1179;DHT22;578;48.408;10.004;2022-10-16T13:11:58;20.60;99.90
1179;DHT22;578;48.408;10.004;2022-10-16T13:17:47;20.90;99.90
1179;DHT22;578;48.408;10.004;2022-10-16T13:20:24;20.90;96.60
1179;DHT22;578;48.408;10.004;2022-10-16T13:23:01;20.80;98.40
1179;DHT22;578;48.408;10.004;2022-10-16T13:25:43;20.90;97.10
1179;DHT22;578;48.408;10.004;2022-10-16T13:28:13;20.80;97.60
1179;DHT22;578;48.408;10.004;2022-10-16T13:30:50;20.80;97.60
1179;DHT22;578;48.408;10.004;2022-10-16T13:33:25;20.70;97.80
1179;DHT22;578;48.408;10.004;2022-10-16T13:36:17;20.80;96.30
1179;DHT22;578;48.408;10.004;2022-10-16T13:38:45;20.80;97.80
1179;DHT22;578;48.408;10.004;2022-10-16T13:41:14;20.80;96.80
1179;DHT22;578;48.408;10.004;2022-10-16T13:43:45;20.90;95.10
1179;DHT22;578;48.408;10.004;2022-10-16T13:46:21;21.00;96.20
1179;DHT22;578;48.408;10.004;2022-10-16T13:49:04;20.90;97.40
1179;DHT22;578;48.408;10.004;2022-10-16T13:51:40;21.00;96.00
1179;DHT22;578;48.408;10.004;2022-10-16T13:54:09;20.90;96.30
1179;DHT22;578;48.408;10.004;2022-10-16T13:56:40;20.90;93.50
1179;DHT22;578;48.408;10.004;2022-10-16T13:59:23;20.80;95.00
1179;DHT22;578;48.408;10.004;2022-10-16T14:01:55;20.90;94.30
1179;DHT22;578;48.408;10.004;2022-10-16T14:04:23;20.90;94.50
1179;DHT22;578;48.408;10.004;2022-10-16T14:06:59;20.80;94.90
1179;DHT22;578;48.408;10.004;2022-10-16T14:09:33;20.60;97.00
1179;DHT22;578;48.408;10.004;2022-10-16T14:12:06;20.60;97.90
1179;DHT22;578;48.408;10.004;2022-10-16T14:14:51;20.50;99.00
1179;DHT22;578;48.408;10.004;2022-10-16T14:17:25;20.60;95.50
1179;DHT22;578;48.408;10.004;2022-10-16T14:19:55;20.60;96.20
1179;DHT22;578;48.408;10.004;2022-10-16T14:22:43;20.50;95.50
1179;DHT22;578;48.408;10.004;2022-10-16T14:25:27;20.80;95.20
1179;DHT22;578;48.408;10.004;2022-10-16T14:28:03;21.10;93.50
1179;DHT22;578;48.408;10.004;2022-10-16T14:30:37;21.10;94.60
1179;DHT22;578;48.408;10.004;2022-10-16T14:33:34;21.10;94.00
1179;DHT22;578;48.408;10.004;2022-10-16T14:36:17;21.40;93.60
1179;DHT22;578;48.408;10.004;2022-10-16T14:39:03;21.30;95.00
1179;DHT22;578;48.408;10.004;2022-10-16T14:41:33;21.10;95.30
1179;DHT22;578;48.408;10.004;2022-10-16T14:44:12;21.10;93.80
1179;DHT22;578;48.408;10.004;2022-10-16T14:46:44;21.00;94.80
1179;DHT22;578;48.408;10.004;2022-10-16T14:49:28;20.90;94.60
1179;DHT22;578;48.408;10.004;2022-10-16T14:52:11;20.80;95.50
1179;DHT22;578;48.408;10.004;2022-10-16T14:54:50;21.00;92.70
1179;DHT22;578;48.408;10.004;2022-10-16T14:57:27;21.10;91.70
1179;DHT22;578;48.408;10.004;2022-10-16T15:00:00;21.00;94.20
1179;DHT22;578;48.408;10.004;2022-10-16T15:02:50;21.10;92.60
1179;DHT22;578;48.408;10.004;2022-10-16T15:05:21;21.10;92.40
1179;DHT22;578;48.408;10.004;2022-10-16T15:07:52;21.30;90.30
1179;DHT22;578;48.408;10.004;2022-10-16T15:10:28;21.20;89.10
1179;DHT22;578;48.408;10.004;2022-10-16T15:12:59;21.10;90.50
1179;DHT22;578;48.408;10.004;2022-10-16T15:15:35;21.10;88.20
1179;DHT22;578;48.408;10.004;2022-10-16T15:18:06;21.00;87.90
1179;DHT22;578;48.408;10.004;2022-10-16T15:20:44;21.10;90.00
1179;DHT22;578;48.408;10.004;2022-10-16T15:23:23;20.90;91.90
1179;DHT22;578;48.408;10.004;2022-10-16T15:26:07;20.40;99.90
1179;DHT22;578;48.408;10.004;2022-10-16T15:28:38;20.00;99.90
1179;DHT22;578;48.408;10.004;2022-10-16T15:31:20;19.70;99.90
1179;DHT22;578;48.408;10.004;2022-10-16T15:33:52;19.40;99.90
1179;DHT22;578;48.408;10.004;2022-10-16T15:36:38;19.50;99.90
1179;DHT22;578;48.408;10.004;2022-10-16T15:39:27;19.60;99.90
1179;DHT22;578;48.408;10.004;2022-10-16T15:42:10;19.50;99.90
1179;DHT22;578;48.408;10.004;2022-10-16T15:44:53;19.20;99.90
1179;DHT22;578;48.408;10.004;2022-10-16T15:47:32;18.80;99.90
1179;DHT22;578;48.408;10.004;2022-10-16T15:50:04;18.90;99.90
1179;DHT22;578;48.408;10.004;2022-10-16T15:52:31;18.90;99.90
1179;DHT22;578;48.408;10.004;2022-10-16T15:54:58;18.80;99.90
1179;DHT22;578;48.408;10.004;2022-10-16T15:57:27;18.50;99.90
1179;DHT22;578;48.408;10.004;2022-10-16T15:59:54;18.30;99.90
1179;DHT22;578;48.408;10.004;2022-10-16T16:02:21;18.10;99.90
1179;DHT22;578;48.408;10.004;2022-10-16T16:04:48;17.90;99.90
1179;DHT22;578;48.408;10.004;2022-10-16T16:07:15;17.80;99.90
1179;DHT22;578;48.408;10.004;2022-10-16T16:09:41;17.60;99.90
1179;DHT22;578;48.408;10.004;2022-10-16T16:12:09;17.50;99.90
1179;DHT22;578;48.408;10.004;2022-10-16T16:14:37;17.40;99.90
1179;DHT22;578;48.408;10.004;2022-10-16T16:17:04;17.40;99.90
1179;DHT22;578;48.408;10.004;2022-10-16T16:19:30;17.30;99.90
1179;DHT22;578;48.408;10.004;2022-10-16T16:21:58;17.10;99.90
1179;DHT22;578;48.408;10.004;2022-10-16T16:24:25;17.00;99.90
1179;DHT22;578;48.408;10.004;2022-10-16T16:26:51;17.00;99.90
1179;DHT22;578;48.408;10.004;2022-10-16T16:29:18;16.80;99.90
1179;DHT22;578;48.408;10.004;2022-10-16T16:31:46;16.80;99.90
1179;DHT22;578;48.408;10.004;2022-10-16T16:34:13;16.60;99.90
1179;DHT22;578;48.408;10.004;2022-10-16T16:36:40;16.40;99.90
1179;DHT22;578;48.408;10.004;2022-10-16T16:39:07;16.60;99.90